KBVS

Skagit Regional Airport

Burlington/Mount Vernon, Washington, USA
METAR KBVS 201515Z AUTO 06010KT 10SM FEW038 SCT065 OVC085 M03/M09 A3020 RMK A01
Observed Flight Rules
Feb-20 @ 15:15 UTC (2 hours ago) Visual Flight Rules
Wind Visibility Clouds
60° at 10 knots 10 miles
  • Few at 3,800' AGL
  • Scattered at 6,500' AGL
  • Overcast at 8,500' AGL
Temperatures Readings
Current -3°C / 27°F
Dewpoint -9°C / 16°F
Humidity 64%
Altimeter 30.2" Hg
Pressure 1023 hPa
Elevation 43
METAR KBVS 201515Z AUTO 06010KT 10SM FEW038 SCT065 OVC085 M03/M09 A3020 RMK A01
Observed Flight Rules
Feb-20 @ 15:15 UTC
(2 hours ago)
VFR
Wind Visibility
60° at 10 knots 10 miles
Clouds
  • Few at 3,800' AGL
  • Scattered at 6,500' AGL
  • Overcast at 8,500' AGL
Temperature Dewpoint
-3°C / 27°F -9°C / 16°F
Humidity Altimeter Pressure
64% 30.2" Hg 1023 hPa